Terminal Aerodrome Forecast
Issued by NWS

Home | Current Version | Previous Version | Graphics & Text | Print | Product List | Glossary On
Versions: 1 2 3 4 5 6 7 8 9 10 11 12 13 14 15 16 17 18 19 20 21 22 23 24 25 26 27
000
FTUS43 KLOT 202115 AAA
TAFGYY
TAF AMD
KGYY 202115Z 2021/2118 25012G20KT 6SM -RA BR SCT009 SCT015 OVC040
      TEMPO 2021/2023 3SM RA BR BKN015
     FM202300 30011KT 3SM RA BR SCT004 OVC007
     FM210800 32014G21KT 4SM -FZRAPL BR SCT007 OVC015
     FM211000 33013G19KT P6SM SCT015 BKN080
     FM211300 34012KT P6SM BKN250=

USA.gov is the U.S. government's official web portal to all federal, state and local government web resources and services.